createdAt,value
2022-12-19T00:01:32.573Z,95738.94
2022-12-19T00:04:00.350Z,95731.19
2022-12-19T00:06:27.592Z,95725.19
2022-12-19T00:08:54.519Z,95721.13
2022-12-19T00:11:22.702Z,95724.09
2022-12-19T00:13:49.285Z,95726.56
2022-12-19T00:16:19.036Z,95720.75
2022-12-19T00:18:46.345Z,95700.91
2022-12-19T00:21:14.029Z,95693.22
2022-12-19T00:23:40.591Z,95692.63
2022-12-19T00:26:08.426Z,95706.09
2022-12-19T00:28:34.912Z,95708.09
2022-12-19T00:31:03.023Z,95712.94
2022-12-19T00:33:30.901Z,95696.78
2022-12-19T00:35:59.715Z,95687.72
2022-12-19T00:38:26.337Z,95689.25
2022-12-19T00:40:52.856Z,95691.84
2022-12-19T00:43:21.479Z,95690.44
2022-12-19T00:45:48.076Z,95705.88
2022-12-19T00:48:14.714Z,95712.22
2022-12-19T00:50:47.110Z,95699.53
2022-12-19T00:53:13.613Z,95701.03
2022-12-19T00:55:40.164Z,95692.97
2022-12-19T00:58:06.681Z,95686.03
2022-12-19T01:00:33.277Z,95680.56
2022-12-19T01:02:59.871Z,95677.84
2022-12-19T01:05:29.279Z,95684.31
2022-12-19T01:07:57.151Z,95680.13
2022-12-19T01:10:23.634Z,95673.16
2022-12-19T01:12:50.133Z,95679.94
2022-12-19T01:15:20.377Z,95676.41
2022-12-19T01:17:47.367Z,95677.91
2022-12-19T01:20:14.772Z,95682.91
2022-12-19T01:22:41.284Z,95683.56
2022-12-19T01:25:09.271Z,95689.53
2022-12-19T01:27:38.892Z,95686.97
2022-12-19T01:30:06.169Z,95692.00
2022-12-19T01:32:33.869Z,95680.69
2022-12-19T01:35:01.080Z,95690.22
2022-12-19T01:37:27.542Z,95689.25
2022-12-19T01:39:57.543Z,95685.84
2022-12-19T01:42:25.353Z,95699.75
2022-12-19T01:45:03.534Z,95689.53
2022-12-19T01:47:30.159Z,95698.28
2022-12-19T01:49:56.708Z,95714.44
2022-12-19T01:52:23.932Z,95699.75
2022-12-19T01:54:50.600Z,95712.69
2022-12-19T01:57:18.252Z,95703.31
2022-12-19T01:59:48.414Z,95692.97
2022-12-19T02:02:19.006Z,95722.22
2022-12-19T02:04:46.142Z,95723.00
2022-12-19T02:07:16.125Z,95737.56
2022-12-19T02:09:44.873Z,95758.41
2022-12-19T02:12:12.660Z,95739.75
2022-12-19T02:14:39.578Z,95746.03
2022-12-19T02:17:10.071Z,95740.22
2022-12-19T02:19:50.698Z,95751.50
2022-12-19T02:22:22.690Z,95766.34
2022-12-19T02:25:15.554Z,95768.94
2022-12-19T02:27:57.010Z,95774.09
2022-12-19T02:30:41.312Z,95770.88
2022-12-19T02:33:14.156Z,95758.38
2022-12-19T02:35:42.861Z,95763.41
2022-12-19T02:38:15.445Z,95777.94
2022-12-19T02:40:44.954Z,95768.28
2022-12-19T02:43:15.775Z,95772.34
2022-12-19T02:45:44.935Z,95776.13
2022-12-19T02:48:13.048Z,95767.38
2022-12-19T02:50:44.519Z,95779.81
2022-12-19T02:53:14.856Z,95791.75
2022-12-19T02:55:44.080Z,95785.09
2022-12-19T02:58:21.824Z,95781.72
2022-12-19T03:00:54.792Z,95791.91
2022-12-19T03:03:23.317Z,95812.72
2022-12-19T03:06:00.960Z,95812.22
2022-12-19T03:08:29.082Z,95826.66
2022-12-19T03:10:58.579Z,95825.91
2022-12-19T03:13:27.449Z,95818.44
2022-12-19T03:15:56.125Z,95829.75
2022-12-19T03:18:22.733Z,95816.97
2022-12-19T03:20:52.630Z,95830.47
2022-12-19T03:23:19.295Z,95808.31
2022-12-19T03:25:48.618Z,95807.63
2022-12-19T03:28:19.228Z,95804.09
2022-12-19T03:30:46.675Z,95808.88
2022-12-19T03:33:16.945Z,95792.84
2022-12-19T03:35:43.683Z,95786.34
2022-12-19T03:38:10.965Z,95771.81
2022-12-19T03:40:38.673Z,95811.34
2022-12-19T03:43:09.758Z,95829.44
2022-12-19T03:45:44.639Z,95873.03
2022-12-19T03:48:13.122Z,95836.03
2022-12-19T03:50:46.717Z,95835.84
2022-12-19T03:53:19.576Z,95838.53
2022-12-19T03:55:47.513Z,95828.75
2022-12-19T03:58:18.534Z,95816.03
2022-12-19T04:00:47.463Z,95809.34
2022-12-19T04:03:15.599Z,95825.06
2022-12-19T04:05:44.471Z,95835.94
2022-12-19T04:08:11.858Z,95844.22
2022-12-19T04:10:42.215Z,95823.78
2022-12-19T04:13:12.378Z,95838.19
2022-12-19T04:15:44.256Z,95845.25
2022-12-19T04:18:11.812Z,95839.28
2022-12-19T04:20:40.693Z,95837.88
2022-12-19T04:23:12.057Z,95829.53
2022-12-19T04:25:40.700Z,95815.19
2022-12-19T04:28:13.470Z,95814.25
2022-12-19T04:30:40.695Z,95816.84
2022-12-19T04:33:07.953Z,95797.91
2022-12-19T04:35:34.672Z,95837.38
2022-12-19T04:38:01.176Z,95825.41
2022-12-19T04:40:29.121Z,95804.72
2022-12-19T04:42:55.596Z,95828.50
2022-12-19T04:45:22.119Z,95805.75
2022-12-19T04:47:48.570Z,95807.88
2022-12-19T04:50:15.412Z,95802.56
2022-12-19T04:52:41.906Z,95806.63
2022-12-19T04:55:08.845Z,95786.44
2022-12-19T04:57:36.748Z,95780.16
2022-12-19T05:00:05.043Z,95783.91
2022-12-19T05:02:32.221Z,95785.38
2022-12-19T05:04:58.898Z,95774.72
2022-12-19T05:07:25.446Z,95769.41
2022-12-19T05:09:51.911Z,95762.81
2022-12-19T05:12:18.417Z,95771.91
2022-12-19T05:14:46.231Z,95799.28
2022-12-19T05:17:12.772Z,95815.31
2022-12-19T05:19:39.251Z,95810.00
2022-12-19T05:22:05.841Z,95804.94
2022-12-19T05:24:32.594Z,95792.81
2022-12-19T05:26:59.407Z,95783.13
2022-12-19T05:29:25.950Z,95768.94
2022-12-19T05:31:53.808Z,95772.03
2022-12-19T05:34:20.344Z,95752.28
2022-12-19T05:36:46.841Z,95770.25
2022-12-19T05:39:13.368Z,95765.22
2022-12-19T05:41:39.838Z,95770.09
2022-12-19T05:44:09.270Z,95772.06
2022-12-19T05:46:35.981Z,95775.16
2022-12-19T05:49:03.953Z,95786.97
2022-12-19T05:51:31.291Z,95792.16
2022-12-19T05:53:57.816Z,95791.34
2022-12-19T05:56:24.301Z,95792.69
2022-12-19T05:58:50.910Z,95788.97
2022-12-19T06:01:18.467Z,95782.69
2022-12-19T06:03:45.164Z,95789.47
2022-12-19T06:06:13.901Z,95784.16
2022-12-19T06:08:41.340Z,95775.72
2022-12-19T06:11:08.328Z,95788.97
2022-12-19T06:13:35.807Z,95798.00
2022-12-19T06:16:04.305Z,95806.56
2022-12-19T06:18:30.969Z,95810.81
2022-12-19T06:20:58.601Z,95799.34
2022-12-19T06:23:26.645Z,95802.72
2022-12-19T06:25:55.463Z,95811.16
2022-12-19T06:28:21.956Z,95819.88
2022-12-19T06:30:48.504Z,95818.28
2022-12-19T06:33:15.102Z,95816.78
2022-12-19T06:35:41.656Z,95814.66
2022-12-19T06:38:08.162Z,95816.88
2022-12-19T06:40:58.671Z,95809.94
2022-12-19T06:46:53.950Z,95811.72
2022-12-19T06:49:20.500Z,95808.31
2022-12-19T06:51:46.962Z,95813.81
2022-12-19T06:54:14.084Z,95810.84
2022-12-19T06:56:42.610Z,95818.63
2022-12-19T06:59:11.562Z,95804.69
2022-12-19T07:01:44.733Z,95809.56
2022-12-19T07:04:13.933Z,95812.00
2022-12-19T07:06:44.677Z,95816.53
2022-12-19T07:09:13.885Z,95817.50
2022-12-19T07:11:41.696Z,95813.00
2022-12-19T07:14:08.178Z,95824.81
2022-12-19T07:16:37.353Z,95816.75
2022-12-19T07:19:04.487Z,95821.75
2022-12-19T07:21:31.111Z,95814.66
2022-12-19T07:23:58.496Z,95814.34
2022-12-19T07:26:25.019Z,95819.25
2022-12-19T07:28:52.986Z,95824.25
2022-12-19T07:31:19.529Z,95816.19
2022-12-19T07:33:46.108Z,95820.09
2022-12-19T07:36:12.576Z,95827.56
2022-12-19T07:38:39.051Z,95821.25
2022-12-19T07:41:05.766Z,95833.09
2022-12-19T07:43:32.245Z,95821.63
2022-12-19T07:46:00.175Z,95835.50
2022-12-19T07:48:28.717Z,95835.22
2022-12-19T07:50:55.237Z,95826.47
2022-12-19T07:53:21.776Z,95837.88
2022-12-19T07:55:50.228Z,95827.69
2022-12-19T07:58:16.776Z,95841.66
2022-12-19T08:00:43.299Z,95837.81
2022-12-19T08:03:11.451Z,95839.75
2022-12-19T08:05:38.299Z,95845.13
2022-12-19T08:08:05.034Z,95836.88
2022-12-19T08:10:31.803Z,95832.84
2022-12-19T08:12:58.307Z,95830.47
2022-12-19T08:15:25.042Z,95816.84
2022-12-19T08:17:51.693Z,95811.06
2022-12-19T08:20:19.629Z,95818.19
2022-12-19T08:22:46.145Z,95808.81
2022-12-19T08:25:13.311Z,95810.44
2022-12-19T08:27:39.835Z,95806.06
2022-12-19T08:30:07.164Z,95802.69
2022-12-19T08:32:35.530Z,95803.34
2022-12-19T08:35:02.039Z,95792.81
2022-12-19T08:37:29.865Z,95801.56
2022-12-19T08:39:56.368Z,95795.72
2022-12-19T08:42:22.838Z,95782.06
2022-12-19T08:44:49.352Z,95785.31
2022-12-19T08:47:15.921Z,95786.09
2022-12-19T08:49:42.466Z,95775.22
2022-12-19T08:52:09.510Z,95764.66
2022-12-19T08:54:37.834Z,95757.47
2022-12-19T08:57:04.459Z,95749.66
2022-12-19T08:59:32.115Z,95746.34
2022-12-19T09:01:59.565Z,95736.47
2022-12-19T09:05:57.342Z,95728.44
2022-12-19T09:07:15.658Z,95723.03
2022-12-19T09:09:44.001Z,95726.22
2022-12-19T09:12:11.837Z,95738.72
2022-12-19T09:14:38.389Z,95751.72
2022-12-19T09:17:05.076Z,95759.38
2022-12-19T09:19:31.907Z,95766.09
2022-12-19T09:21:58.498Z,95770.63
2022-12-19T09:24:25.166Z,95774.22
2022-12-19T09:26:53.159Z,95777.19
2022-12-19T09:29:21.784Z,95768.38
2022-12-19T09:31:53.885Z,95763.03
2022-12-19T09:34:24.387Z,95767.53
2022-12-19T09:36:59.934Z,95764.09
2022-12-19T09:39:26.466Z,95762.44
2022-12-19T09:42:06.302Z,95766.78
2022-12-19T09:44:41.354Z,95749.97
2022-12-19T09:47:13.278Z,95751.53
2022-12-19T09:49:42.690Z,95744.31
2022-12-19T09:52:13.570Z,95750.72
2022-12-19T09:54:42.478Z,95747.88
2022-12-19T09:57:13.953Z,95745.84
2022-12-19T09:59:49.436Z,95746.59
2022-12-19T10:02:26.819Z,95752.34
2022-12-19T10:05:05.960Z,95749.97
2022-12-19T10:08:07.240Z,95757.53
2022-12-19T10:12:34.622Z,95745.84
2022-12-19T10:13:29.609Z,95737.25
2022-12-19T10:16:01.106Z,95733.81
2022-12-19T10:18:34.810Z,95728.22
2022-12-19T10:21:04.459Z,95726.78
2022-12-19T10:23:56.612Z,95730.88
2022-12-19T10:26:29.993Z,95727.53
2022-12-19T10:29:10.855Z,95731.03
2022-12-19T10:31:40.608Z,95715.88
2022-12-19T10:34:16.806Z,95701.59
2022-12-19T10:39:33.726Z,95686.66
2022-12-19T10:42:07.854Z,95680.81
2022-12-19T10:44:38.450Z,95689.19
2022-12-19T10:47:05.029Z,95686.59
2022-12-19T10:49:31.709Z,95684.63
2022-12-19T10:51:59.192Z,95688.84
2022-12-19T10:54:33.344Z,95693.38
2022-12-19T10:57:18.125Z,95698.56
2022-12-19T10:59:53.765Z,95700.41
2022-12-19T11:02:29.334Z,95696.94
2022-12-19T11:04:56.188Z,95690.19
2022-12-19T11:07:22.794Z,95687.81
2022-12-19T11:10:09.174Z,95678.16
2022-12-19T11:16:45.531Z,95676.16
2022-12-19T11:19:14.035Z,95675.53
2022-12-19T11:27:03.923Z,95669.50
2022-12-19T11:29:41.736Z,95665.28
2022-12-19T11:29:42.002Z,95673.53
2022-12-19T11:30:48.174Z,95657.63
2022-12-19T11:32:48.833Z,95660.63
2022-12-19T11:35:17.937Z,95644.50
2022-12-19T11:37:47.940Z,95651.94
2022-12-19T11:40:17.260Z,95649.53
2022-12-19T11:43:04.388Z,95641.06
2022-12-19T11:45:40.902Z,95640.06
2022-12-19T11:48:11.897Z,95632.81
2022-12-19T11:50:45.044Z,95630.41
2022-12-19T11:53:19.108Z,95638.44
2022-12-19T11:55:51.110Z,95630.78
2022-12-19T11:58:17.616Z,95634.97
2022-12-19T12:00:49.771Z,95627.91
2022-12-19T12:03:25.903Z,95623.25
2022-12-19T12:05:54.514Z,95622.63
2022-12-19T12:11:08.754Z,95625.88
2022-12-19T12:20:29.539Z,95613.41
2022-12-19T12:26:49.070Z,95611.81
2022-12-19T12:31:09.270Z,95612.44
2022-12-19T12:31:23.775Z,95627.75
2022-12-19T12:31:31.784Z,95621.31
2022-12-19T12:31:45.835Z,95630.16
2022-12-19T12:32:04.667Z,95640.84
2022-12-19T12:35:56.814Z,95622.72
2022-12-19T12:38:18.760Z,95622.53
2022-12-19T12:40:40.454Z,95625.97
2022-12-19T12:43:15.681Z,95618.09
2022-12-19T12:45:44.934Z,95621.75
2022-12-19T12:48:18.243Z,95628.38
2022-12-19T12:50:53.143Z,95621.94
2022-12-19T12:53:24.182Z,95622.72
2022-12-19T12:55:51.904Z,95616.47
2022-12-19T12:58:37.225Z,95605.38
2022-12-19T13:01:08.557Z,95602.75
2022-12-19T13:03:35.386Z,95604.31
2022-12-19T13:06:05.504Z,95604.09
2022-12-19T13:08:35.202Z,95606.69
2022-12-19T13:11:02.702Z,95604.88
2022-12-19T13:13:46.887Z,95604.66
2022-12-19T13:16:28.294Z,95593.78
2022-12-19T13:19:04.125Z,95598.41
2022-12-19T13:21:57.661Z,95585.91
2022-12-19T13:24:25.603Z,95582.88
2022-12-19T13:26:52.453Z,95572.00
2022-12-19T13:29:39.978Z,95570.56
2022-12-19T13:32:10.857Z,95576.41
2022-12-19T13:34:37.378Z,95580.59
2022-12-19T13:39:56.782Z,95584.41
2022-12-19T13:40:30.662Z,95573.72
2022-12-19T13:43:21.107Z,95561.66
2022-12-19T13:45:49.755Z,95563.47
2022-12-19T13:48:18.749Z,95561.84
2022-12-19T13:50:48.165Z,95566.66
2022-12-19T13:53:16.826Z,95561.63
2022-12-19T13:55:44.786Z,95557.22
2022-12-19T13:58:21.849Z,95557.22
2022-12-19T14:00:58.601Z,95557.59
2022-12-19T14:03:32.792Z,95558.19
2022-12-19T14:06:18.206Z,95545.44
2022-12-19T14:08:46.737Z,95548.81
2022-12-19T14:11:45.065Z,95559.00
2022-12-19T14:14:27.505Z,95562.56
2022-12-19T14:16:55.534Z,95570.97
2022-12-19T14:19:22.944Z,95575.75
2022-12-19T14:22:09.800Z,95572.16
2022-12-19T14:24:36.013Z,95570.72
2022-12-19T14:28:24.279Z,95570.94
2022-12-19T14:30:27.693Z,95572.91
2022-12-19T14:33:53.165Z,95574.09
2022-12-19T14:36:06.398Z,95568.06
2022-12-19T14:39:23.794Z,95569.69
2022-12-19T14:41:37.829Z,95572.69
2022-12-19T14:54:04.474Z,95580.47
2022-12-19T14:54:08.205Z,95580.22
2022-12-19T14:54:12.267Z,95568.72
2022-12-19T14:54:25.524Z,95582.34
2022-12-19T14:56:08.396Z,95579.66
2022-12-19T14:58:54.201Z,95586.44
2022-12-19T15:01:10.012Z,95594.03
2022-12-19T15:03:44.695Z,95586.59
2022-12-19T15:07:08.848Z,95593.16
2022-12-19T15:11:05.553Z,95603.00
2022-12-19T15:14:49.063Z,95604.34
2022-12-19T15:15:18.450Z,95606.28
2022-12-19T15:17:47.547Z,95603.78
2022-12-19T15:20:14.215Z,95600.28
2022-12-19T15:22:40.691Z,95606.41
2022-12-19T15:25:17.590Z,95614.16
2022-12-19T15:27:53.950Z,95607.69
2022-12-19T15:30:21.372Z,95620.09
2022-12-19T15:32:49.177Z,95621.28
2022-12-19T15:35:16.733Z,95623.25
2022-12-19T15:37:43.542Z,95616.00
2022-12-19T15:40:13.982Z,95617.06
2022-12-19T15:42:40.662Z,95624.34
2022-12-19T15:45:07.972Z,95627.25
2022-12-19T15:47:35.490Z,95625.00
2022-12-19T15:50:14.138Z,95625.53
2022-12-19T15:52:40.622Z,95624.47
2022-12-19T15:55:08.863Z,95629.56
2022-12-19T15:57:38.446Z,95631.19
2022-12-19T16:00:07.499Z,95632.19
2022-12-19T16:03:20.686Z,95637.75
2022-12-19T16:05:23.209Z,95647.53
2022-12-19T16:07:49.867Z,95641.25
2022-12-19T16:10:16.726Z,95645.53
2022-12-19T16:12:45.240Z,95657.47
2022-12-19T16:15:17.127Z,95658.19
2022-12-19T16:17:43.633Z,95659.50
2022-12-19T16:20:21.054Z,95666.50
2022-12-19T16:22:49.333Z,95674.16
2022-12-19T16:25:15.860Z,95674.16
2022-12-19T16:27:43.142Z,95674.16
2022-12-19T16:30:18.906Z,95666.69
2022-12-19T16:32:45.969Z,95665.59
2022-12-19T16:35:15.509Z,95655.44
2022-12-19T16:37:42.490Z,95668.97
2022-12-19T16:40:14.032Z,95679.72
2022-12-19T16:42:42.177Z,95684.28
2022-12-19T16:45:15.749Z,95681.03
2022-12-19T16:47:42.245Z,95685.25
2022-12-19T16:50:12.526Z,95681.50
2022-12-19T16:52:42.457Z,95684.94
2022-12-19T16:55:09.756Z,95677.28
2022-12-19T16:57:36.271Z,95675.19
2022-12-19T17:00:04.489Z,95670.53
2022-12-19T17:02:40.661Z,95677.06
2022-12-19T17:05:14.014Z,95665.19
2022-12-19T17:07:40.507Z,95671.22
2022-12-19T17:10:07.342Z,95668.59
2022-12-19T17:12:33.859Z,95664.22
2022-12-19T17:15:00.404Z,95663.88
2022-12-19T17:17:28.364Z,95665.50
2022-12-19T17:19:54.834Z,95672.13
2022-12-19T17:22:21.470Z,95661.09
2022-12-19T17:24:49.020Z,95659.50
2022-12-19T17:27:17.389Z,95651.84
2022-12-19T17:29:44.460Z,95659.66
2022-12-19T17:32:17.022Z,95656.09
2022-12-19T17:34:49.515Z,95652.66
2022-12-19T17:37:16.943Z,95659.50
2022-12-19T17:39:43.440Z,95656.09
2022-12-19T17:42:13.713Z,95652.50
2022-12-19T17:44:40.192Z,95660.28
2022-12-19T17:47:06.741Z,95651.69
2022-12-19T17:49:33.522Z,95651.34
2022-12-19T17:52:01.411Z,95649.53
2022-12-19T17:54:27.967Z,95652.78
2022-12-19T17:56:55.318Z,95644.78
2022-12-19T17:59:21.863Z,95652.41
2022-12-19T18:01:48.625Z,95651.09
2022-12-19T18:04:16.939Z,95646.19
2022-12-19T18:06:43.687Z,95636.22
2022-12-19T18:09:16.663Z,95640.44
2022-12-19T18:11:44.632Z,95630.31
2022-12-19T18:14:11.397Z,95612.22
2022-12-19T18:16:38.083Z,95610.84
2022-12-19T18:19:05.231Z,95611.78
2022-12-19T18:21:31.823Z,95612.41
2022-12-19T18:23:58.356Z,95615.66
2022-12-19T18:26:25.098Z,95614.66
2022-12-19T18:28:54.409Z,95615.44
2022-12-19T18:31:23.180Z,95608.28
2022-12-19T18:33:50.208Z,95613.31
2022-12-19T18:36:19.012Z,95611.53
2022-12-19T18:38:45.922Z,95608.72
2022-12-19T18:41:12.546Z,95599.75
2022-12-19T18:43:39.121Z,95592.41
2022-12-19T18:46:07.145Z,95588.28
2022-12-19T18:48:36.382Z,95592.94
2022-12-19T18:51:03.883Z,95588.06
2022-12-19T18:53:35.649Z,95598.50
2022-12-19T18:56:03.546Z,95596.25
2022-12-19T18:58:30.059Z,95595.44
2022-12-19T19:00:59.427Z,95599.66
2022-12-19T19:03:29.488Z,95587.81
2022-12-19T19:05:56.287Z,95588.16
2022-12-19T19:08:23.513Z,95582.34
2022-12-19T19:11:00.148Z,95579.75
2022-12-19T19:13:27.345Z,95579.56
2022-12-19T19:15:55.222Z,95579.56
2022-12-19T19:18:22.951Z,95580.72
2022-12-19T19:20:55.705Z,95584.69
2022-12-19T19:23:29.495Z,95589.41
2022-12-19T19:25:56.027Z,95577.94
2022-12-19T19:28:22.541Z,95583.50
2022-12-19T19:30:50.949Z,95589.69
2022-12-19T19:33:20.089Z,95583.06
2022-12-19T19:35:48.057Z,95587.44
2022-12-19T19:38:16.413Z,95585.03
2022-12-19T19:40:43.331Z,95582.94
2022-12-19T19:43:09.882Z,95578.63
2022-12-19T19:45:42.787Z,95566.78
2022-12-19T19:48:10.019Z,95570.38
2022-12-19T19:50:36.605Z,95556.88
2022-12-19T19:53:03.133Z,95563.44
2022-12-19T19:55:31.405Z,95560.38
2022-12-19T19:57:57.925Z,95564.50
2022-12-19T20:00:24.417Z,95564.03
2022-12-19T20:02:51.229Z,95561.44
2022-12-19T20:05:18.389Z,95568.25
2022-12-19T20:07:45.163Z,95568.44
2022-12-19T20:10:12.285Z,95567.00
2022-12-19T20:12:40.218Z,95565.09
2022-12-19T20:15:07.669Z,95569.03
2022-12-19T20:17:34.234Z,95565.78
2022-12-19T20:20:00.776Z,95567.94
2022-12-19T20:22:28.399Z,95559.06
2022-12-19T20:24:55.053Z,95557.41
2022-12-19T20:27:21.591Z,95557.63
2022-12-19T20:29:49.726Z,95555.38
2022-12-19T20:32:16.243Z,95558.13
2022-12-19T20:34:42.763Z,95558.13
2022-12-19T20:37:09.285Z,95563.16
2022-12-19T20:39:35.937Z,95560.56
2022-12-19T20:42:02.419Z,95565.56
2022-12-19T20:44:29.242Z,95551.13
2022-12-19T20:46:57.845Z,95555.06
2022-12-19T20:49:24.380Z,95554.44
2022-12-19T20:51:50.924Z,95556.22
2022-12-19T20:54:18.237Z,95552.47
2022-12-19T20:56:45.041Z,95543.53
2022-12-19T20:59:11.711Z,95545.94
2022-12-19T21:01:38.356Z,95543.16
2022-12-19T21:04:06.558Z,95544.63
2022-12-19T21:06:33.503Z,95531.41
2022-12-19T21:09:00.160Z,95534.50
2022-12-19T21:11:26.818Z,95535.09
2022-12-19T21:13:53.409Z,95535.38
2022-12-19T21:16:21.435Z,95541.44
2022-12-19T21:18:48.573Z,95533.78
2022-12-19T21:21:17.879Z,95540.59
2022-12-19T21:23:44.804Z,95532.63
2022-12-19T21:26:11.695Z,95529.03
2022-12-19T21:28:38.378Z,95528.22
2022-12-19T21:31:06.306Z,95524.81
2022-12-19T21:33:33.462Z,95527.44
2022-12-19T21:36:05.262Z,95538.81
2022-12-19T21:38:33.136Z,95534.22
2022-12-19T21:41:01.671Z,95534.88
2022-12-19T21:43:29.877Z,95538.91
2022-12-19T21:46:03.667Z,95537.91
2022-12-19T21:48:33.913Z,95533.34
2022-12-19T21:51:00.420Z,95532.56
2022-12-19T21:53:26.880Z,95531.75
2022-12-19T21:56:01.250Z,95533.88
2022-12-19T21:58:27.756Z,95530.03
2022-12-19T22:01:07.878Z,95534.59
2022-12-19T22:03:35.293Z,95534.78
2022-12-19T22:06:01.944Z,95537.09
2022-12-19T22:08:28.650Z,95533.06
2022-12-19T22:10:56.741Z,95535.00
2022-12-19T22:13:23.334Z,95534.56
2022-12-19T22:15:52.199Z,95538.13
2022-12-19T22:18:18.746Z,95541.38
2022-12-19T22:20:45.392Z,95537.97
2022-12-19T22:23:13.529Z,95538.13
2022-12-19T22:25:40.381Z,95545.13
2022-12-19T22:28:08.366Z,95537.97
2022-12-19T22:30:35.206Z,95529.97
2022-12-19T22:33:01.958Z,95534.56
2022-12-19T22:35:28.479Z,95540.94
2022-12-19T22:37:55.104Z,95540.72
2022-12-19T22:40:21.587Z,95535.38
2022-12-19T22:42:48.127Z,95539.41
2022-12-19T22:45:16.032Z,95531.63
2022-12-19T22:47:42.536Z,95529.81
2022-12-19T22:50:10.516Z,95527.56
2022-12-19T22:52:37.202Z,95531.50
2022-12-19T22:55:04.139Z,95534.09
2022-12-19T22:57:30.658Z,95529.69
2022-12-19T22:59:57.158Z,95527.94
2022-12-19T23:02:25.061Z,95512.50
2022-12-19T23:04:51.649Z,95523.88
2022-12-19T23:07:18.284Z,95527.44
2022-12-19T23:09:44.744Z,95534.28
2022-12-19T23:12:11.448Z,95528.59
2022-12-19T23:14:37.934Z,95534.00
2022-12-19T23:17:04.429Z,95528.78
2022-12-19T23:19:32.310Z,95520.81
2022-12-19T23:21:58.821Z,95526.66
2022-12-19T23:24:25.331Z,95529.09
2022-12-19T23:26:52.708Z,95531.69
2022-12-19T23:29:19.297Z,95530.84
2022-12-19T23:31:46.904Z,95531.03
2022-12-19T23:34:13.958Z,95535.25
2022-12-19T23:39:28.473Z,95522.16
2022-12-19T23:41:54.943Z,95523.13
2022-12-19T23:44:21.647Z,95521.31
2022-12-19T23:46:48.202Z,95528.31
2022-12-19T23:49:15.614Z,95527.69
2022-12-19T23:51:43.440Z,95530.28
2022-12-19T23:54:10.107Z,95529.31
2022-12-19T23:56:36.880Z,95529.13
2022-12-19T23:59:03.742Z,95511.75
